KLM1954 LGAV-EHAM
Flight info
| Callsign | KLM1954 |
|---|---|
| Flight time | N/A |
| Altitude | 40000 |
| Route | KOR UL53 ELVAS DCT TUMBO DCT TAZ DCT KUSIB DCT PODET DCT RENKA DCT GASKA DCT MAPOX DCT HMM DCT NORKU |
| Aircraft | A332/H-SDE3GHIJ2J3J5M1RVWXY/LB2D1 |
Departure
| Time | 2026-05-07 08:14 |
|---|---|
| Airport | Athens Eleftherios Venizelos International Airport (LGAV) |
Arrival
| Time | N/A |
|---|---|
| Airport | Amsterdam Airport Schiphol (EHAM) |
| Time | Latitude | Longitude | Altitude | Speed | Heading |
|---|---|---|---|---|---|
| 2026-05-07 07:52 | 37.93508 | 23.94757 | 297 ft | 0 kts | 307° |
| 2026-05-07 08:03 | 37.93508 | 23.94758 | 297 ft | 0 kts | 307° |
| 2026-05-07 08:04 | 37.93508 | 23.94757 | 297 ft | 0 kts | 307° |
| 2026-05-07 08:04 | 37.93501 | 23.94768 | 297 ft | 2 kts | 307° |
| 2026-05-07 08:04 | 37.93494 | 23.94780 | 297 ft | 0 kts | 307° |
| 2026-05-07 08:04 | 37.93488 | 23.94791 | 297 ft | 2 kts | 297° |
| 2026-05-07 08:05 | 37.93483 | 23.94809 | 297 ft | 2 kts | 279° |
| 2026-05-07 08:05 | 37.93481 | 23.94827 | 297 ft | 2 kts | 265° |
| 2026-05-07 08:05 | 37.93484 | 23.94845 | 297 ft | 2 kts | 250° |
| 2026-05-07 08:05 | 37.93490 | 23.94861 | 297 ft | 2 kts | 236° |
| 2026-05-07 08:06 | 37.93499 | 23.94875 | 297 ft | 2 kts | 221° |
| 2026-05-07 08:06 | 37.93504 | 23.94880 | 297 ft | 1 kts | 214° |
| 2026-05-07 08:06 | 37.93506 | 23.94881 | 297 ft | 0 kts | 215° |
| 2026-05-07 08:08 | 37.93503 | 23.94879 | 297 ft | 2 kts | 213° |
| 2026-05-07 08:08 | 37.93462 | 23.94875 | 297 ft | 8 kts | 152° |
| 2026-05-07 08:08 | 37.93419 | 23.94928 | 296 ft | 10 kts | 131° |
| 2026-05-07 08:08 | 37.93370 | 23.94976 | 295 ft | 7 kts | 174° |
| 2026-05-07 08:09 | 37.93316 | 23.94954 | 294 ft | 9 kts | 206° |
| 2026-05-07 08:09 | 37.93261 | 23.94908 | 294 ft | 12 kts | 216° |
| 2026-05-07 08:09 | 37.93177 | 23.94830 | 294 ft | 19 kts | 217° |
| 2026-05-07 08:09 | 37.93063 | 23.94720 | 293 ft | 26 kts | 217° |
| 2026-05-07 08:10 | 37.92912 | 23.94583 | 290 ft | 32 kts | 216° |
| 2026-05-07 08:10 | 37.92760 | 23.94433 | 288 ft | 23 kts | 220° |
| 2026-05-07 08:10 | 37.92642 | 23.94323 | 286 ft | 23 kts | 217° |
| 2026-05-07 08:10 | 37.92547 | 23.94230 | 285 ft | 11 kts | 218° |
| 2026-05-07 08:11 | 37.92487 | 23.94176 | 284 ft | 12 kts | 204° |
| 2026-05-07 08:11 | 37.92431 | 23.94184 | 284 ft | 8 kts | 137° |
| 2026-05-07 08:11 | 37.92414 | 23.94247 | 284 ft | 9 kts | 96° |
| 2026-05-07 08:11 | 37.92412 | 23.94278 | 284 ft | 0 kts | 93° |
| 2026-05-07 08:12 | 37.92412 | 23.94283 | 284 ft | 3 kts | 93° |
| 2026-05-07 08:12 | 37.92413 | 23.94334 | 285 ft | 8 kts | 81° |
| 2026-05-07 08:12 | 37.92438 | 23.94395 | 285 ft | 9 kts | 50° |
| 2026-05-07 08:12 | 37.92511 | 23.94477 | 285 ft | 36 kts | 38° |
| 2026-05-07 08:13 | 37.92839 | 23.94791 | 290 ft | 94 kts | 37° |
| 2026-05-07 08:13 | 37.93442 | 23.95358 | 288 ft | 144 kts | 37° |
| 2026-05-07 08:13 | 37.94268 | 23.96144 | 307 ft | 184 kts | 37° |
| 2026-05-07 08:13 | 37.95219 | 23.97018 | 698 ft | 191 kts | 37° |
| 2026-05-07 08:14 | 37.96211 | 23.97940 | 1288 ft | 192 kts | 38° |
| 2026-05-07 08:14 | 37.97201 | 23.98910 | 1945 ft | 191 kts | 39° |
| 2026-05-07 08:14 | 37.98160 | 23.99888 | 2470 ft | 197 kts | 39° |
| 2026-05-07 08:14 | 37.99178 | 24.00922 | 2883 ft | 210 kts | 38° |
| 2026-05-07 08:15 | 38.00317 | 24.02023 | 3269 ft | 227 kts | 38° |
| 2026-05-07 08:15 | 38.01573 | 24.03209 | 3672 ft | 244 kts | 37° |
| 2026-05-07 08:15 | 38.02939 | 24.04507 | 4165 ft | 257 kts | 37° |
| 2026-05-07 08:15 | 38.04308 | 24.05814 | 4875 ft | 261 kts | 37° |
| 2026-05-07 08:16 | 38.05709 | 24.07157 | 5643 ft | 262 kts | 37° |
| 2026-05-07 08:16 | 38.07103 | 24.08498 | 6355 ft | 265 kts | 37° |
| 2026-05-07 08:16 | 38.08436 | 24.09912 | 7014 ft | 268 kts | 49° |
| 2026-05-07 08:16 | 38.09301 | 24.11976 | 7437 ft | 282 kts | 77° |
| 2026-05-07 08:17 | 38.09341 | 24.14224 | 8006 ft | 288 kts | 102° |
| 2026-05-07 08:17 | 38.08677 | 24.16231 | 8656 ft | 289 kts | 126° |
| 2026-05-07 08:17 | 38.07394 | 24.17780 | 9264 ft | 293 kts | 150° |
| 2026-05-07 08:17 | 38.05653 | 24.18537 | 9843 ft | 296 kts | 176° |
| 2026-05-07 08:18 | 38.03755 | 24.18249 | 10432 ft | 297 kts | 203° |
| 2026-05-07 08:18 | 38.02161 | 24.16967 | 10792 ft | 305 kts | 229° |
| 2026-05-07 08:18 | 38.01122 | 24.14856 | 11071 ft | 316 kts | 249° |
| 2026-05-07 08:18 | 38.00241 | 24.12160 | 11493 ft | 330 kts | 249° |
| 2026-05-07 08:19 | 37.99308 | 24.09393 | 12190 ft | 334 kts | 249° |
| 2026-05-07 08:19 | 37.98391 | 24.06757 | 12903 ft | 336 kts | 248° |
| 2026-05-07 08:19 | 37.97435 | 24.04067 | 13602 ft | 339 kts | 248° |
| 2026-05-07 08:19 | 37.96471 | 24.01386 | 14290 ft | 343 kts | 248° |
| 2026-05-07 08:20 | 37.95488 | 23.98667 | 15001 ft | 345 kts | 248° |
| 2026-05-07 08:20 | 37.94493 | 23.95925 | 15708 ft | 348 kts | 248° |
| 2026-05-07 08:20 | 37.93478 | 23.93130 | 16413 ft | 350 kts | 248° |
| 2026-05-07 08:20 | 37.92452 | 23.90318 | 17151 ft | 352 kts | 248° |
| 2026-05-07 08:21 | 37.91416 | 23.87474 | 17871 ft | 354 kts | 247° |
| 2026-05-07 08:21 | 37.90444 | 23.84810 | 18492 ft | 357 kts | 247° |
| 2026-05-07 08:21 | 37.89571 | 23.82096 | 19078 ft | 359 kts | 255° |
| 2026-05-07 08:21 | 37.89107 | 23.79382 | 19666 ft | 359 kts | 264° |
| 2026-05-07 08:22 | 37.89016 | 23.76495 | 20264 ft | 360 kts | 273° |
| 2026-05-07 08:22 | 37.89143 | 23.73688 | 20823 ft | 363 kts | 274° |
| 2026-05-07 08:22 | 37.89298 | 23.70935 | 21332 ft | 366 kts | 275° |
| 2026-05-07 08:22 | 37.89460 | 23.68088 | 21852 ft | 368 kts | 274° |
| 2026-05-07 08:23 | 37.89621 | 23.65173 | 22392 ft | 370 kts | 274° |
| 2026-05-07 08:23 | 37.89775 | 23.62279 | 22919 ft | 372 kts | 274° |
| 2026-05-07 08:23 | 37.89922 | 23.59461 | 23374 ft | 375 kts | 274° |
| 2026-05-07 08:23 | 37.90073 | 23.56501 | 23876 ft | 377 kts | 274° |
| 2026-05-07 08:24 | 37.90223 | 23.53516 | 24364 ft | 380 kts | 274° |
| 2026-05-07 08:24 | 37.90373 | 23.50497 | 24766 ft | 384 kts | 274° |
| 2026-05-07 08:24 | 37.90523 | 23.47459 | 25061 ft | 390 kts | 274° |
| 2026-05-07 08:24 | 37.90695 | 23.43954 | 25501 ft | 394 kts | 274° |
| 2026-05-07 08:25 | 37.90865 | 23.40465 | 26008 ft | 396 kts | 274° |
| 2026-05-07 08:25 | 37.91019 | 23.37279 | 26473 ft | 397 kts | 274° |
| 2026-05-07 08:25 | 37.91169 | 23.34151 | 26903 ft | 399 kts | 273° |
| 2026-05-07 08:25 | 37.91320 | 23.30995 | 27300 ft | 401 kts | 273° |
| 2026-05-07 08:26 | 37.91628 | 23.24489 | 28068 ft | 406 kts | 272° |
| 2026-05-07 08:26 | 37.91779 | 23.21258 | 28485 ft | 408 kts | 272° |
| 2026-05-07 08:26 | 37.91927 | 23.18085 | 28847 ft | 410 kts | 272° |
| 2026-05-07 08:27 | 37.92077 | 23.14851 | 29170 ft | 413 kts | 272° |
| 2026-05-07 08:27 | 37.92224 | 23.11619 | 29528 ft | 414 kts | 272° |
| 2026-05-07 08:27 | 37.92373 | 23.08395 | 29899 ft | 415 kts | 272° |
| 2026-05-07 08:27 | 37.92522 | 23.05075 | 30242 ft | 417 kts | 272° |
| 2026-05-07 08:28 | 37.92786 | 23.01421 | 30590 ft | 420 kts | 277° |
| 2026-05-07 08:28 | 37.93319 | 22.97820 | 30961 ft | 422 kts | 282° |
| 2026-05-07 08:28 | 37.94120 | 22.94279 | 31303 ft | 425 kts | 287° |
| 2026-05-07 08:28 | 37.95193 | 22.90826 | 31680 ft | 427 kts | 292° |
| 2026-05-07 08:29 | 37.96492 | 22.87590 | 32073 ft | 428 kts | 297° |
| 2026-05-07 08:29 | 37.97903 | 22.84732 | 32470 ft | 429 kts | 301° |
| 2026-05-07 08:29 | 37.99347 | 22.82076 | 32909 ft | 426 kts | 302° |
| 2026-05-07 08:29 | 38.00824 | 22.79414 | 33402 ft | 423 kts | 303° |
| 2026-05-07 08:30 | 38.02319 | 22.76728 | 33900 ft | 419 kts | 302° |
| 2026-05-07 08:30 | 38.03817 | 22.74033 | 34374 ft | 416 kts | 302° |
| 2026-05-07 08:30 | 38.05363 | 22.71226 | 34904 ft | 412 kts | 302° |
| 2026-05-07 08:30 | 38.06860 | 22.68507 | 35472 ft | 407 kts | 302° |
| 2026-05-07 08:31 | 38.08316 | 22.65854 | 35979 ft | 403 kts | 302° |
| 2026-05-07 08:31 | 38.09809 | 22.63128 | 36461 ft | 399 kts | 302° |
| 2026-05-07 08:31 | 38.11268 | 22.60463 | 36921 ft | 395 kts | 302° |
| 2026-05-07 08:31 | 38.12719 | 22.57813 | 37430 ft | 390 kts | 302° |
| 2026-05-07 08:32 | 38.14148 | 22.55198 | 37868 ft | 387 kts | 302° |
| 2026-05-07 08:32 | 38.15534 | 22.52665 | 38219 ft | 384 kts | 301° |
| 2026-05-07 08:32 | 38.16900 | 22.50158 | 38514 ft | 383 kts | 301° |
| 2026-05-07 08:32 | 38.18280 | 22.47624 | 38723 ft | 383 kts | 301° |
| 2026-05-07 08:33 | 38.19676 | 22.45051 | 38899 ft | 384 kts | 301° |
| 2026-05-07 08:33 | 38.21084 | 22.42464 | 39096 ft | 384 kts | 301° |
| 2026-05-07 08:33 | 38.22472 | 22.39919 | 39302 ft | 384 kts | 301° |
| 2026-05-07 08:33 | 38.23846 | 22.37385 | 39443 ft | 385 kts | 301° |
| 2026-05-07 08:34 | 38.25212 | 22.34862 | 39594 ft | 386 kts | 301° |
| 2026-05-07 08:34 | 38.26570 | 22.32356 | 39774 ft | 386 kts | 300° |
| 2026-05-07 08:34 | 38.27933 | 22.29846 | 39935 ft | 387 kts | 301° |
| 2026-05-07 08:34 | 38.29293 | 22.27330 | 40079 ft | 387 kts | 300° |
| 2026-05-07 08:35 | 38.32011 | 22.22308 | 40111 ft | 389 kts | 301° |
| 2026-05-07 08:35 | 38.34763 | 22.17211 | 40124 ft | 389 kts | 301° |
| 2026-05-07 08:36 | 38.37458 | 22.12214 | 40127 ft | 391 kts | 300° |
| 2026-05-07 08:36 | 38.40179 | 22.07155 | 40129 ft | 390 kts | 301° |
| 2026-05-07 08:37 | 38.42931 | 22.02039 | 40137 ft | 391 kts | 300° |
| 2026-05-07 08:37 | 38.45682 | 21.96907 | 40126 ft | 392 kts | 300° |
| 2026-05-07 08:38 | 38.48522 | 21.91840 | 40125 ft | 395 kts | 303° |
| 2026-05-07 08:38 | 38.51664 | 21.87113 | 40131 ft | 399 kts | 308° |
| 2026-05-07 08:39 | 38.55183 | 21.82678 | 40140 ft | 404 kts | 312° |
| 2026-05-07 08:39 | 38.59089 | 21.78569 | 40145 ft | 408 kts | 317° |
| 2026-05-07 08:40 | 38.63312 | 21.74789 | 40152 ft | 412 kts | 320° |
| 2026-05-07 08:40 | 38.67622 | 21.71057 | 40153 ft | 413 kts | 320° |
| 2026-05-07 08:41 | 38.71950 | 21.67303 | 40138 ft | 412 kts | 320° |
| 2026-05-07 08:41 | 38.76280 | 21.63535 | 40136 ft | 415 kts | 320° |
| 2026-05-07 08:42 | 38.80584 | 21.59791 | 40134 ft | 414 kts | 320° |
| 2026-05-07 08:42 | 38.84959 | 21.55971 | 40107 ft | 417 kts | 320° |
| 2026-05-07 08:43 | 38.89319 | 21.52161 | 40114 ft | 419 kts | 320° |
| 2026-05-07 08:43 | 38.93658 | 21.48360 | 40102 ft | 418 kts | 320° |
| 2026-05-07 08:44 | 38.97948 | 21.44600 | 40100 ft | 418 kts | 320° |
| 2026-05-07 08:44 | 39.02248 | 21.40825 | 40106 ft | 420 kts | 320° |
| 2026-05-07 08:45 | 39.06582 | 21.37013 | 40114 ft | 420 kts | 320° |
| 2026-05-07 08:45 | 39.10880 | 21.33229 | 40134 ft | 422 kts | 320° |
| 2026-05-07 08:46 | 39.15214 | 21.29409 | 40141 ft | 422 kts | 319° |
| 2026-05-07 08:46 | 39.19527 | 21.25597 | 40157 ft | 424 kts | 319° |
| 2026-05-07 08:47 | 39.23739 | 21.21871 | 40159 ft | 425 kts | 320° |
| 2026-05-07 08:47 | 39.27951 | 21.18140 | 40157 ft | 425 kts | 320° |
| 2026-05-07 08:48 | 39.32111 | 21.14446 | 40161 ft | 426 kts | 320° |
| 2026-05-07 08:48 | 39.36289 | 21.10735 | 40159 ft | 427 kts | 320° |
| 2026-05-07 08:49 | 39.40512 | 21.06978 | 40152 ft | 427 kts | 320° |
| 2026-05-07 08:49 | 39.44830 | 21.03130 | 40146 ft | 430 kts | 320° |
| 2026-05-07 08:50 | 39.48998 | 20.99410 | 40140 ft | 430 kts | 320° |
| 2026-05-07 08:50 | 39.53241 | 20.95616 | 40151 ft | 431 kts | 320° |
| 2026-05-07 08:51 | 39.57659 | 20.91661 | 40147 ft | 430 kts | 320° |
| 2026-05-07 08:51 | 39.61921 | 20.87839 | 40150 ft | 431 kts | 320° |
| 2026-05-07 08:52 | 39.66248 | 20.83954 | 40146 ft | 432 kts | 320° |
| 2026-05-07 08:52 | 39.70573 | 20.80061 | 40137 ft | 432 kts | 320° |
| 2026-05-07 08:53 | 39.74845 | 20.76214 | 40135 ft | 432 kts | 320° |
| 2026-05-07 08:53 | 39.79116 | 20.72361 | 40132 ft | 432 kts | 320° |
| 2026-05-07 08:54 | 39.83398 | 20.68490 | 40139 ft | 434 kts | 320° |
| 2026-05-07 08:54 | 39.87738 | 20.64563 | 40145 ft | 435 kts | 320° |
| 2026-05-07 08:55 | 39.92049 | 20.60652 | 40157 ft | 435 kts | 320° |
| 2026-05-07 08:55 | 39.96402 | 20.56699 | 40165 ft | 437 kts | 320° |
| 2026-05-07 08:56 | 40.00747 | 20.52748 | 40157 ft | 438 kts | 320° |
| 2026-05-07 08:56 | 40.05103 | 20.48797 | 40155 ft | 439 kts | 321° |
| 2026-05-07 08:57 | 40.09625 | 20.45175 | 40158 ft | 443 kts | 325° |
| 2026-05-07 08:57 | 40.14337 | 20.41736 | 40151 ft | 442 kts | 326° |
| 2026-05-07 08:58 | 40.19005 | 20.38351 | 40157 ft | 442 kts | 326° |
| 2026-05-07 08:58 | 40.23719 | 20.34920 | 40153 ft | 441 kts | 325° |
| 2026-05-07 08:59 | 40.28383 | 20.31513 | 40149 ft | 442 kts | 325° |
| 2026-05-07 08:59 | 40.33122 | 20.28043 | 40146 ft | 442 kts | 325° |
| 2026-05-07 09:00 | 40.37796 | 20.24617 | 40134 ft | 443 kts | 325° |
| 2026-05-07 09:00 | 40.42467 | 20.21188 | 40135 ft | 443 kts | 325° |
| 2026-05-07 09:01 | 40.47106 | 20.17773 | 40137 ft | 444 kts | 325° |
| 2026-05-07 09:01 | 40.51807 | 20.14307 | 40126 ft | 444 kts | 325° |
| 2026-05-07 09:02 | 40.56514 | 20.10834 | 40136 ft | 444 kts | 325° |
| 2026-05-07 09:02 | 40.61214 | 20.07359 | 40116 ft | 445 kts | 325° |
| 2026-05-07 09:03 | 40.65924 | 20.03871 | 40118 ft | 445 kts | 325° |
| 2026-05-07 09:03 | 40.70657 | 20.00359 | 40110 ft | 446 kts | 326° |
| 2026-05-07 09:04 | 40.75415 | 19.96824 | 40116 ft | 445 kts | 325° |
| 2026-05-07 09:04 | 40.80209 | 19.93259 | 40116 ft | 446 kts | 325° |
| 2026-05-07 09:05 | 40.84937 | 19.89733 | 40108 ft | 446 kts | 326° |
| 2026-05-07 09:05 | 40.89676 | 19.86192 | 40104 ft | 446 kts | 326° |
| 2026-05-07 09:06 | 40.94374 | 19.82678 | 40114 ft | 447 kts | 325° |
| 2026-05-07 09:06 | 40.99037 | 19.79186 | 40103 ft | 448 kts | 326° |
| 2026-05-07 09:07 | 41.03708 | 19.75680 | 40109 ft | 447 kts | 326° |
| 2026-05-07 09:07 | 41.08435 | 19.72127 | 40121 ft | 447 kts | 326° |
| 2026-05-07 09:08 | 41.13128 | 19.68594 | 40118 ft | 447 kts | 326° |
| 2026-05-07 09:08 | 41.17828 | 19.65049 | 40111 ft | 448 kts | 326° |
| 2026-05-07 09:09 | 41.22541 | 19.61490 | 40109 ft | 448 kts | 326° |
| 2026-05-07 09:09 | 41.27285 | 19.57899 | 40124 ft | 449 kts | 326° |
| 2026-05-07 09:10 | 41.32050 | 19.54291 | 40093 ft | 449 kts | 326° |
| 2026-05-07 09:10 | 41.36783 | 19.50697 | 40111 ft | 449 kts | 326° |
| 2026-05-07 09:11 | 41.41526 | 19.47088 | 40102 ft | 449 kts | 326° |
| 2026-05-07 09:11 | 41.46271 | 19.43474 | 40080 ft | 450 kts | 325° |
| 2026-05-07 09:12 | 41.51020 | 19.39850 | 40090 ft | 451 kts | 326° |
| 2026-05-07 09:12 | 41.55778 | 19.36212 | 40086 ft | 451 kts | 326° |
| 2026-05-07 09:13 | 41.60555 | 19.32553 | 40080 ft | 452 kts | 325° |
| 2026-05-07 09:13 | 41.65382 | 19.28854 | 40070 ft | 450 kts | 325° |
| 2026-05-07 09:14 | 41.70232 | 19.25125 | 40066 ft | 451 kts | 325° |
| 2026-05-07 09:14 | 41.75075 | 19.21399 | 40064 ft | 452 kts | 325° |
| 2026-05-07 09:15 | 41.79932 | 19.17652 | 40052 ft | 451 kts | 325° |
| 2026-05-07 09:15 | 41.84779 | 19.13908 | 40065 ft | 451 kts | 325° |
| 2026-05-07 09:16 | 41.89605 | 19.10169 | 40059 ft | 452 kts | 326° |
| 2026-05-07 09:16 | 41.94381 | 19.06469 | 40061 ft | 453 kts | 325° |
| 2026-05-07 09:17 | 41.99199 | 19.02727 | 40074 ft | 453 kts | 325° |
| 2026-05-07 09:17 | 42.04037 | 18.98965 | 40082 ft | 454 kts | 325° |
| 2026-05-07 09:18 | 42.08815 | 18.95242 | 40077 ft | 454 kts | 326° |
| 2026-05-07 09:18 | 42.13710 | 18.91418 | 40089 ft | 454 kts | 325° |
| 2026-05-07 09:19 | 42.18510 | 18.87664 | 40093 ft | 454 kts | 325° |
| 2026-05-07 09:19 | 42.23369 | 18.83854 | 40091 ft | 455 kts | 326° |
| 2026-05-07 09:20 | 42.28236 | 18.80036 | 40094 ft | 454 kts | 325° |
| 2026-05-07 09:20 | 42.33048 | 18.76316 | 40092 ft | 455 kts | 326° |
| 2026-05-07 09:21 | 42.37859 | 18.72617 | 40088 ft | 455 kts | 326° |
| 2026-05-07 09:21 | 42.42640 | 18.68932 | 40094 ft | 455 kts | 326° |
| 2026-05-07 09:22 | 42.47481 | 18.65193 | 40090 ft | 456 kts | 326° |
| 2026-05-07 09:22 | 42.52274 | 18.61479 | 40082 ft | 456 kts | 326° |
| 2026-05-07 09:23 | 42.57185 | 18.57669 | 40093 ft | 456 kts | 326° |
| 2026-05-07 09:23 | 42.62036 | 18.53895 | 40083 ft | 456 kts | 326° |
| 2026-05-07 09:24 | 42.66907 | 18.50099 | 40087 ft | 456 kts | 326° |
| 2026-05-07 09:24 | 42.71758 | 18.46315 | 40089 ft | 457 kts | 326° |
| 2026-05-07 09:25 | 42.76550 | 18.42568 | 40094 ft | 457 kts | 326° |
| 2026-05-07 09:25 | 42.81398 | 18.38772 | 40086 ft | 458 kts | 326° |
| 2026-05-07 09:26 | 42.86291 | 18.34929 | 40092 ft | 458 kts | 325° |
| 2026-05-07 09:26 | 42.91195 | 18.31075 | 40082 ft | 457 kts | 325° |
| 2026-05-07 09:27 | 42.96080 | 18.27227 | 40070 ft | 457 kts | 325° |
| 2026-05-07 09:28 | 43.03474 | 18.21390 | 40061 ft | 457 kts | 325° |
| 2026-05-07 09:28 | 43.08364 | 18.17520 | 40055 ft | 457 kts | 325° |
| 2026-05-07 09:29 | 43.13335 | 18.13576 | 40064 ft | 458 kts | 325° |
| 2026-05-07 09:29 | 43.18259 | 18.09667 | 40036 ft | 458 kts | 325° |
| 2026-05-07 09:30 | 43.23230 | 18.05712 | 40047 ft | 458 kts | 325° |
| 2026-05-07 09:30 | 43.28158 | 18.01781 | 40049 ft | 458 kts | 325° |
| 2026-05-07 09:31 | 43.33105 | 17.97827 | 40048 ft | 459 kts | 325° |
| 2026-05-07 09:31 | 43.38022 | 17.93892 | 40049 ft | 458 kts | 325° |
| 2026-05-07 09:32 | 43.42892 | 17.89987 | 40054 ft | 458 kts | 326° |
| 2026-05-07 09:32 | 43.47720 | 17.86109 | 40056 ft | 458 kts | 326° |
| 2026-05-07 09:33 | 43.52487 | 17.82274 | 40054 ft | 458 kts | 325° |
| 2026-05-07 09:33 | 43.57315 | 17.78380 | 40055 ft | 458 kts | 325° |
| 2026-05-07 09:34 | 43.62165 | 17.74462 | 40056 ft | 459 kts | 325° |
| 2026-05-07 09:34 | 43.66892 | 17.70636 | 40056 ft | 459 kts | 325° |
| 2026-05-07 09:35 | 43.71674 | 17.66758 | 40050 ft | 459 kts | 325° |
| 2026-05-07 09:35 | 43.76497 | 17.62840 | 40048 ft | 459 kts | 325° |
| 2026-05-07 09:36 | 43.81361 | 17.58881 | 40047 ft | 460 kts | 325° |
| 2026-05-07 09:36 | 43.86156 | 17.54970 | 40047 ft | 459 kts | 325° |
| 2026-05-07 09:37 | 43.91003 | 17.51008 | 40048 ft | 459 kts | 325° |
| 2026-05-07 09:37 | 43.95889 | 17.47010 | 40048 ft | 459 kts | 325° |
| 2026-05-07 09:38 | 44.00715 | 17.43051 | 40050 ft | 459 kts | 325° |
| 2026-05-07 09:38 | 44.05488 | 17.39127 | 40049 ft | 458 kts | 325° |
| 2026-05-07 09:39 | 44.10313 | 17.35153 | 40038 ft | 459 kts | 325° |
| 2026-05-07 09:39 | 44.15216 | 17.31108 | 40037 ft | 459 kts | 324° |
| 2026-05-07 09:40 | 44.20079 | 17.27089 | 40037 ft | 459 kts | 324° |
| 2026-05-07 09:40 | 44.24935 | 17.23068 | 40037 ft | 459 kts | 324° |
| 2026-05-07 09:41 | 44.29766 | 17.19060 | 40036 ft | 459 kts | 324° |
| 2026-05-07 09:41 | 44.34636 | 17.15010 | 40027 ft | 459 kts | 324° |
| 2026-05-07 09:42 | 44.39424 | 17.11021 | 40025 ft | 460 kts | 324° |
| 2026-05-07 09:42 | 44.44263 | 17.06982 | 40019 ft | 460 kts | 324° |
| 2026-05-07 09:43 | 44.49097 | 17.02942 | 40012 ft | 460 kts | 324° |
| 2026-05-07 09:43 | 44.53914 | 16.98904 | 40012 ft | 460 kts | 324° |
| 2026-05-07 09:44 | 44.58718 | 16.94870 | 40009 ft | 461 kts | 324° |
| 2026-05-07 09:44 | 44.63569 | 16.90790 | 40009 ft | 461 kts | 324° |
| 2026-05-07 09:45 | 44.68406 | 16.86713 | 40010 ft | 462 kts | 324° |
| 2026-05-07 09:45 | 44.73191 | 16.82672 | 40004 ft | 463 kts | 324° |
| 2026-05-07 09:46 | 44.78079 | 16.78537 | 40000 ft | 463 kts | 324° |
| 2026-05-07 09:46 | 44.83025 | 16.74341 | 40005 ft | 462 kts | 324° |
| 2026-05-07 09:47 | 44.87978 | 16.70135 | 39996 ft | 462 kts | 324° |
| 2026-05-07 09:47 | 44.92863 | 16.65977 | 39996 ft | 462 kts | 324° |
| 2026-05-07 09:48 | 44.97784 | 16.61777 | 39994 ft | 463 kts | 324° |
| 2026-05-07 09:48 | 45.02797 | 16.57492 | 39987 ft | 464 kts | 324° |
| 2026-05-07 09:49 | 45.07824 | 16.53187 | 39982 ft | 464 kts | 324° |
| 2026-05-07 09:49 | 45.12846 | 16.48875 | 39979 ft | 464 kts | 324° |
| 2026-05-07 09:50 | 45.17878 | 16.44639 | 39976 ft | 466 kts | 326° |
| 2026-05-07 09:50 | 45.22998 | 16.40517 | 39982 ft | 466 kts | 326° |
| 2026-05-07 09:51 | 45.28083 | 16.36416 | 39969 ft | 467 kts | 326° |
| 2026-05-07 09:51 | 45.33132 | 16.32321 | 39965 ft | 466 kts | 324° |
| 2026-05-07 09:52 | 45.38182 | 16.28206 | 39959 ft | 466 kts | 324° |
| 2026-05-07 09:52 | 45.43242 | 16.24073 | 39984 ft | 466 kts | 324° |
| 2026-05-07 09:53 | 45.48195 | 16.20019 | 39962 ft | 466 kts | 324° |
| 2026-05-07 09:53 | 45.53171 | 16.15937 | 39970 ft | 466 kts | 324° |
| 2026-05-07 09:54 | 45.58104 | 16.11883 | 39966 ft | 466 kts | 324° |
| 2026-05-07 09:54 | 45.63029 | 16.07824 | 39959 ft | 466 kts | 324° |
| 2026-05-07 09:55 | 45.68002 | 16.03721 | 39966 ft | 467 kts | 324° |
| 2026-05-07 09:55 | 45.72995 | 15.99591 | 39952 ft | 467 kts | 325° |
| 2026-05-07 09:56 | 45.77956 | 15.95480 | 39934 ft | 467 kts | 324° |
| 2026-05-07 09:56 | 45.82927 | 15.91352 | 39934 ft | 467 kts | 324° |
| 2026-05-07 09:57 | 45.87862 | 15.87242 | 39952 ft | 468 kts | 325° |
| 2026-05-07 09:57 | 45.92810 | 15.83117 | 39944 ft | 468 kts | 324° |
| 2026-05-07 09:58 | 45.97766 | 15.78974 | 39942 ft | 469 kts | 325° |
| 2026-05-07 09:58 | 46.02675 | 15.74864 | 39951 ft | 468 kts | 324° |
| 2026-05-07 09:59 | 46.07564 | 15.70760 | 39947 ft | 468 kts | 324° |
| 2026-05-07 09:59 | 46.12421 | 15.66674 | 39948 ft | 469 kts | 325° |
| 2026-05-07 10:00 | 46.17352 | 15.62520 | 39962 ft | 470 kts | 325° |
| 2026-05-07 10:00 | 46.22213 | 15.58453 | 39959 ft | 470 kts | 325° |
| 2026-05-07 10:01 | 46.27109 | 15.54370 | 39949 ft | 470 kts | 325° |
| 2026-05-07 10:01 | 46.32016 | 15.50261 | 39967 ft | 470 kts | 325° |
| 2026-05-07 10:02 | 46.36906 | 15.46160 | 39947 ft | 470 kts | 325° |
| 2026-05-07 10:02 | 46.41777 | 15.42061 | 39953 ft | 471 kts | 325° |
| 2026-05-07 10:03 | 46.46742 | 15.37877 | 39967 ft | 471 kts | 325° |
| 2026-05-07 10:03 | 46.51699 | 15.33687 | 39953 ft | 471 kts | 324° |
| 2026-05-07 10:04 | 46.56630 | 15.29515 | 39948 ft | 472 kts | 324° |
| 2026-05-07 10:04 | 46.61597 | 15.25301 | 39936 ft | 472 kts | 324° |
| 2026-05-07 10:05 | 46.66551 | 15.21090 | 39942 ft | 472 kts | 324° |
| 2026-05-07 10:05 | 46.71540 | 15.16838 | 39943 ft | 472 kts | 324° |
| 2026-05-07 10:06 | 46.76511 | 15.12593 | 39944 ft | 473 kts | 324° |
| 2026-05-07 10:06 | 46.81495 | 15.08326 | 39938 ft | 474 kts | 325° |
| 2026-05-07 10:07 | 46.86409 | 15.04113 | 39948 ft | 474 kts | 324° |
| 2026-05-07 10:07 | 46.91377 | 14.99842 | 39945 ft | 473 kts | 324° |
| 2026-05-07 10:08 | 46.96360 | 14.95551 | 39949 ft | 473 kts | 325° |
| 2026-05-07 10:08 | 47.01373 | 14.91223 | 39947 ft | 474 kts | 325° |
| 2026-05-07 10:09 | 47.06326 | 14.86934 | 39948 ft | 475 kts | 325° |
| 2026-05-07 10:09 | 47.11335 | 14.82591 | 39947 ft | 475 kts | 325° |
| 2026-05-07 10:10 | 47.16444 | 14.78152 | 39952 ft | 476 kts | 325° |
| 2026-05-07 10:10 | 47.21567 | 14.73690 | 39965 ft | 476 kts | 325° |
| 2026-05-07 10:11 | 47.26601 | 14.69295 | 39959 ft | 476 kts | 325° |
| 2026-05-07 10:11 | 47.31665 | 14.64867 | 39962 ft | 476 kts | 325° |
| 2026-05-07 10:12 | 47.36724 | 14.60431 | 39958 ft | 476 kts | 325° |
| 2026-05-07 10:12 | 47.41824 | 14.55946 | 39952 ft | 475 kts | 325° |
| 2026-05-07 10:13 | 47.46917 | 14.51461 | 39959 ft | 477 kts | 325° |
| 2026-05-07 10:13 | 47.51981 | 14.46989 | 39960 ft | 476 kts | 325° |
| 2026-05-07 10:14 | 47.57076 | 14.42482 | 39955 ft | 476 kts | 325° |
| 2026-05-07 10:14 | 47.62142 | 14.37989 | 39944 ft | 476 kts | 325° |
| 2026-05-07 10:15 | 47.67209 | 14.33485 | 39958 ft | 477 kts | 324° |
| 2026-05-07 10:15 | 47.72238 | 14.29004 | 39959 ft | 476 kts | 324° |
| 2026-05-07 10:16 | 47.77325 | 14.24461 | 39964 ft | 477 kts | 324° |
| 2026-05-07 10:16 | 47.82375 | 14.19942 | 39955 ft | 477 kts | 324° |
| 2026-05-07 10:17 | 47.87426 | 14.15408 | 39954 ft | 477 kts | 324° |
| 2026-05-07 10:17 | 47.92567 | 14.10786 | 39960 ft | 477 kts | 325° |
| 2026-05-07 10:18 | 47.97680 | 14.06178 | 39966 ft | 477 kts | 325° |
| 2026-05-07 10:18 | 48.02784 | 14.01568 | 39970 ft | 478 kts | 325° |
| 2026-05-07 10:19 | 48.07840 | 13.96990 | 39974 ft | 479 kts | 325° |
| 2026-05-07 10:19 | 48.12854 | 13.92440 | 39967 ft | 479 kts | 325° |
| 2026-05-07 10:20 | 48.17961 | 13.87795 | 39971 ft | 479 kts | 325° |
| 2026-05-07 10:20 | 48.23091 | 13.83116 | 39972 ft | 478 kts | 325° |
| 2026-05-07 10:21 | 48.28131 | 13.78507 | 39969 ft | 478 kts | 325° |
| 2026-05-07 10:21 | 48.33169 | 13.73892 | 39969 ft | 477 kts | 325° |
| 2026-05-07 10:22 | 48.38187 | 13.69283 | 39971 ft | 477 kts | 325° |
| 2026-05-07 10:22 | 48.43243 | 13.64631 | 39960 ft | 477 kts | 325° |
| 2026-05-07 10:23 | 48.48288 | 13.59976 | 39960 ft | 477 kts | 325° |
| 2026-05-07 10:23 | 48.53236 | 13.55280 | 39957 ft | 475 kts | 322° |
| 2026-05-07 10:24 | 48.57899 | 13.49979 | 39956 ft | 472 kts | 316° |
| 2026-05-07 10:24 | 48.62184 | 13.44002 | 39957 ft | 468 kts | 311° |
| 2026-05-07 10:25 | 48.66070 | 13.37537 | 39952 ft | 467 kts | 308° |
| 2026-05-07 10:25 | 48.69878 | 13.30912 | 39957 ft | 466 kts | 307° |
| 2026-05-07 10:26 | 48.73701 | 13.24250 | 39955 ft | 467 kts | 307° |
| 2026-05-07 10:26 | 48.77501 | 13.17631 | 39956 ft | 467 kts | 307° |
| 2026-05-07 10:27 | 48.81241 | 13.11111 | 39956 ft | 467 kts | 307° |
| 2026-05-07 10:27 | 48.85017 | 13.04515 | 39957 ft | 467 kts | 308° |
| 2026-05-07 10:28 | 48.88749 | 12.97979 | 39953 ft | 468 kts | 308° |
| 2026-05-07 10:28 | 48.92520 | 12.91362 | 39955 ft | 468 kts | 308° |
| 2026-05-07 10:29 | 48.96183 | 12.84917 | 39954 ft | 468 kts | 308° |
| 2026-05-07 10:29 | 48.99916 | 12.78331 | 39955 ft | 468 kts | 308° |
| 2026-05-07 10:30 | 49.05551 | 12.68364 | 39954 ft | 468 kts | 308° |
| 2026-05-07 10:30 | 49.09226 | 12.61844 | 39956 ft | 468 kts | 308° |
| 2026-05-07 10:31 | 49.12917 | 12.55275 | 39952 ft | 468 kts | 308° |
| 2026-05-07 10:31 | 49.16612 | 12.48687 | 39954 ft | 468 kts | 308° |
| 2026-05-07 10:32 | 49.20301 | 12.42090 | 39960 ft | 468 kts | 308° |
| 2026-05-07 10:32 | 49.24001 | 12.35457 | 39961 ft | 467 kts | 308° |
| 2026-05-07 10:33 | 49.27781 | 12.28663 | 39960 ft | 467 kts | 307° |
| 2026-05-07 10:33 | 49.31631 | 12.21726 | 39957 ft | 468 kts | 307° |
| 2026-05-07 10:34 | 49.35441 | 12.14843 | 39953 ft | 467 kts | 307° |
| 2026-05-07 10:34 | 49.39141 | 12.08141 | 39949 ft | 467 kts | 307° |
| 2026-05-07 10:35 | 49.42910 | 12.01295 | 39946 ft | 468 kts | 307° |
| 2026-05-07 10:35 | 49.46703 | 11.94388 | 39942 ft | 468 kts | 308° |
| 2026-05-07 10:36 | 49.50523 | 11.87415 | 39945 ft | 468 kts | 307° |
| 2026-05-07 10:36 | 49.54335 | 11.80438 | 39951 ft | 468 kts | 308° |
| 2026-05-07 10:37 | 49.58115 | 11.73502 | 39954 ft | 468 kts | 307° |
| 2026-05-07 10:37 | 49.61904 | 11.66530 | 39955 ft | 468 kts | 308° |
| 2026-05-07 10:38 | 49.65648 | 11.59623 | 39955 ft | 468 kts | 307° |
| 2026-05-07 10:38 | 49.69396 | 11.52686 | 39954 ft | 468 kts | 308° |
| 2026-05-07 10:39 | 49.73138 | 11.45744 | 39951 ft | 468 kts | 308° |
| 2026-05-07 10:39 | 49.76872 | 11.38798 | 39948 ft | 469 kts | 308° |
| 2026-05-07 10:40 | 49.80648 | 11.31758 | 39948 ft | 468 kts | 307° |
| 2026-05-07 10:40 | 49.84373 | 11.24793 | 39947 ft | 468 kts | 307° |
| 2026-05-07 10:41 | 49.88124 | 11.17761 | 39948 ft | 467 kts | 307° |
| 2026-05-07 10:41 | 49.91886 | 11.10692 | 39950 ft | 468 kts | 307° |
| 2026-05-07 10:42 | 49.95629 | 11.03634 | 39954 ft | 468 kts | 307° |
| 2026-05-07 10:42 | 49.99324 | 10.96650 | 39955 ft | 467 kts | 307° |
| 2026-05-07 10:43 | 50.03046 | 10.89598 | 39956 ft | 467 kts | 307° |
| 2026-05-07 10:43 | 50.06735 | 10.82589 | 39957 ft | 467 kts | 307° |
| 2026-05-07 10:44 | 50.10450 | 10.75508 | 39958 ft | 467 kts | 307° |
| 2026-05-07 10:44 | 50.14159 | 10.68424 | 39957 ft | 467 kts | 307° |
| 2026-05-07 10:45 | 50.17858 | 10.61339 | 39959 ft | 468 kts | 307° |
| 2026-05-07 10:45 | 50.21595 | 10.54160 | 39959 ft | 468 kts | 307° |
| 2026-05-07 10:46 | 50.25287 | 10.47051 | 39957 ft | 468 kts | 307° |
| 2026-05-07 10:46 | 50.28954 | 10.39968 | 39956 ft | 468 kts | 307° |
| 2026-05-07 10:47 | 50.32660 | 10.32787 | 39957 ft | 468 kts | 307° |
| 2026-05-07 10:47 | 50.36352 | 10.25670 | 39956 ft | 468 kts | 308° |
| 2026-05-07 10:48 | 50.40156 | 10.18725 | 39955 ft | 468 kts | 308° |
| 2026-05-07 10:48 | 50.43984 | 10.11768 | 39954 ft | 468 kts | 308° |
| 2026-05-07 10:49 | 50.47762 | 10.04862 | 39952 ft | 468 kts | 308° |
| 2026-05-07 10:49 | 50.51536 | 9.97924 | 39946 ft | 467 kts | 308° |
| 2026-05-07 10:50 | 50.55312 | 9.90961 | 39952 ft | 467 kts | 308° |
| 2026-05-07 10:50 | 50.59054 | 9.84036 | 39957 ft | 468 kts | 308° |
| 2026-05-07 10:51 | 50.62820 | 9.77048 | 39958 ft | 468 kts | 308° |
| 2026-05-07 10:51 | 50.66614 | 9.69990 | 39964 ft | 468 kts | 308° |
| 2026-05-07 10:52 | 50.70367 | 9.62987 | 39965 ft | 468 kts | 308° |
| 2026-05-07 10:52 | 50.74128 | 9.55952 | 39966 ft | 468 kts | 308° |
| 2026-05-07 10:53 | 50.77891 | 9.48892 | 39964 ft | 468 kts | 309° |
| 2026-05-07 10:53 | 50.81667 | 9.41792 | 39967 ft | 469 kts | 309° |
| 2026-05-07 10:54 | 50.85422 | 9.34709 | 39970 ft | 469 kts | 308° |
| 2026-05-07 10:54 | 50.89230 | 9.27508 | 39973 ft | 469 kts | 308° |
| 2026-05-07 10:55 | 50.92989 | 9.20381 | 39978 ft | 468 kts | 308° |
| 2026-05-07 10:55 | 50.96762 | 9.13205 | 39970 ft | 468 kts | 308° |
| 2026-05-07 10:56 | 51.00508 | 9.06059 | 39977 ft | 468 kts | 308° |
| 2026-05-07 10:56 | 51.04232 | 8.98938 | 39977 ft | 468 kts | 308° |
| 2026-05-07 10:57 | 51.07930 | 8.91844 | 39977 ft | 468 kts | 308° |
| 2026-05-07 10:57 | 51.11656 | 8.84703 | 39975 ft | 468 kts | 309° |
| 2026-05-07 10:58 | 51.15628 | 8.77980 | 39977 ft | 469 kts | 314° |
| 2026-05-07 10:58 | 51.19875 | 8.71567 | 39975 ft | 469 kts | 315° |
| 2026-05-07 10:59 | 51.24092 | 8.65267 | 39973 ft | 469 kts | 315° |
| 2026-05-07 10:59 | 51.28354 | 8.58868 | 39971 ft | 469 kts | 315° |
| 2026-05-07 11:00 | 51.32598 | 8.52467 | 39968 ft | 469 kts | 315° |
| 2026-05-07 11:00 | 51.36824 | 8.46075 | 39971 ft | 468 kts | 315° |
| 2026-05-07 11:01 | 51.41057 | 8.39652 | 39976 ft | 468 kts | 315° |
| 2026-05-07 11:01 | 51.45298 | 8.33196 | 39984 ft | 468 kts | 314° |
| 2026-05-07 11:02 | 51.49549 | 8.26707 | 39994 ft | 467 kts | 314° |
| 2026-05-07 11:02 | 51.53736 | 8.20299 | 39996 ft | 467 kts | 315° |
| 2026-05-07 11:03 | 51.57925 | 8.13869 | 40003 ft | 467 kts | 315° |
| 2026-05-07 11:03 | 51.62132 | 8.07399 | 40009 ft | 467 kts | 315° |
| 2026-05-07 11:04 | 51.66316 | 8.00943 | 40011 ft | 467 kts | 314° |
| 2026-05-07 11:04 | 51.70528 | 7.94427 | 40014 ft | 467 kts | 315° |
| 2026-05-07 11:05 | 51.74768 | 7.87849 | 40021 ft | 467 kts | 315° |
| 2026-05-07 11:05 | 51.78982 | 7.81296 | 40013 ft | 467 kts | 315° |
| 2026-05-07 11:06 | 51.83173 | 7.74758 | 40016 ft | 467 kts | 315° |
| 2026-05-07 11:06 | 51.87166 | 7.67842 | 40020 ft | 466 kts | 309° |
| 2026-05-07 11:07 | 51.90832 | 7.60527 | 40015 ft | 465 kts | 307° |
| 2026-05-07 11:07 | 51.94418 | 7.53235 | 40021 ft | 465 kts | 307° |
| 2026-05-07 11:08 | 51.98043 | 7.45856 | 40016 ft | 464 kts | 307° |
| 2026-05-07 11:08 | 52.01639 | 7.38533 | 40017 ft | 464 kts | 308° |
| 2026-05-07 11:09 | 52.05258 | 7.31151 | 40020 ft | 464 kts | 307° |
| 2026-05-07 11:09 | 52.08862 | 7.23777 | 40019 ft | 464 kts | 307° |
| 2026-05-07 11:10 | 52.12496 | 7.16321 | 40018 ft | 464 kts | 307° |
| 2026-05-07 11:10 | 52.16060 | 7.08985 | 40026 ft | 464 kts | 307° |
| 2026-05-07 11:11 | 52.19591 | 7.01698 | 40022 ft | 465 kts | 307° |
| 2026-05-07 11:11 | 52.23134 | 6.94429 | 40019 ft | 465 kts | 308° |
| 2026-05-07 11:12 | 52.26766 | 6.87202 | 40021 ft | 465 kts | 308° |
| 2026-05-07 11:12 | 52.30394 | 6.79968 | 40022 ft | 465 kts | 308° |
| 2026-05-07 11:13 | 52.33985 | 6.72758 | 40028 ft | 465 kts | 308° |
| 2026-05-07 11:13 | 52.37568 | 6.65540 | 40023 ft | 464 kts | 308° |
| 2026-05-07 11:14 | 52.41143 | 6.58317 | 40029 ft | 464 kts | 308° |
| 2026-05-07 11:14 | 52.44688 | 6.51129 | 40026 ft | 464 kts | 307° |
| 2026-05-07 11:15 | 52.46261 | 6.47295 | 40014 ft | 462 kts | 294° |
| 2026-05-07 11:15 | 52.47134 | 6.42896 | 40016 ft | 460 kts | 278° |
| 2026-05-07 11:15 | 52.47621 | 6.33465 | 40030 ft | 459 kts | 272° |
| 2026-05-07 11:16 | 52.48019 | 6.23908 | 40034 ft | 459 kts | 273° |
| 2026-05-07 11:16 | 52.48466 | 6.14308 | 40031 ft | 459 kts | 274° |
| 2026-05-07 11:17 | 52.48891 | 6.05453 | 40036 ft | 459 kts | 274° |
| 2026-05-07 11:17 | 52.49203 | 5.98921 | 40040 ft | 459 kts | 274° |
| 2026-05-07 11:18 | 52.49644 | 5.89511 | 40051 ft | 459 kts | 274° |